Latest Weather Observations for Cape Sorell

IDT60801

Issued at 8:05 am EDT Sunday 26 October 2014 (issued every 30 minutes, with the page automatically refreshed every 10 minutes)

About weather observations | Map of weather stations | Latest weather observations for TAS | Other Formats
Station Details ID: 097000 Name: CAPE SORELL Lat: -42.20 Lon: 145.17 Height: 19.3 m
Data from the previous 72 hours. | See also: Recent months at Cape Sorell
Date/Time
EDT
Temp
°C
App
Temp
°C
Dew
Point
Rel
Hum
%
Delta-T
°C
Wind Press
QNH
hPa
Press
MSL
hPa
Rain
since 9 am
mm
Dir
 
Spd
km/h
Gust
km/h
Spd
kts
Gust
kts
26/08:00am 12.3 11.4 10.5 89 0.9 NNW 6 7 3 4 1013.0 1013.1 0.0
26/07:30am 12.0 10.8 10.4 90 0.8 N 7 11 4 6 1012.8 1012.9 0.0
26/07:00am 11.9 9.9 10.1 89 0.9 NE 11 15 6 8 1012.7 1012.8 0.0
26/06:30am 11.9 10.2 10.0 88 1.0 NE 9 11 5 6 1012.6 1012.7 0.0
26/06:00am 11.9 10.8 9.8 87 1.1 N 6 7 3 4 1012.7 1012.8 0.0
26/05:30am 11.8 10.6 9.7 87 1.1 N 6 7 3 4 1012.9 1013.0 0.0
26/05:00am 11.7 11.2 9.4 86 1.2 NNE 2 6 1 3 1012.8 1012.9 0.0
26/04:30am 11.7 10.3 9.6 87 1.1 NNE 7 11 4 6 1012.7 1012.8 0.0
26/04:00am 11.5 11.3 9.2 86 1.2 CALM 0 0 0 0 1012.8 1012.9 0.0
26/03:30am 11.6 11.5 9.3 86 1.2 CALM 0 7 0 4 1013.1 1013.2 0.0
26/03:00am 11.3 9.8 9.0 86 1.1 ENE 7 9 4 5 1013.4 1013.5 0.0
26/02:30am 10.9 9.4 8.5 85 1.2 ESE 6 7 3 4 1013.8 1013.9 0.0
26/02:00am 10.6 9.0 7.8 83 1.4 SE 6 9 3 5 1014.1 1014.2 0.0
26/01:30am 11.3 8.8 8.3 82 1.5 SSE 11 15 6 8 1014.0 1014.1 0.0
26/01:00am 11.5 9.1 8.5 82 1.5 SSE 11 17 6 9 1015.2 1015.3 0.0
26/12:30am 11.5 9.1 8.5 82 1.5 SE 11 17 6 9 1015.2 1015.3 0.0
26/12:00am 12.0 8.0 9.0 82 1.5 S 20 26 11 14 1015.9 1015.9 0.0
 
Date/Time
EDT
Temp
°C
App
Temp
°C
Dew
Point
Rel
Hum
%
Delta-T
°C
Wind Press
QNH
hPa
Press
MSL
hPa
Rain
since 9 am
mm
Dir
 
Spd
km/h
Gust
km/h
Spd
kts
Gust
kts
25/11:30pm 12.1 6.3 9.3 83 1.4 S 30 35 16 19 1016.4 1016.4 0.0
25/11:00pm 12.1 5.8 9.1 82 1.5 SSW 32 37 17 20 1016.4 1016.4 0.0
25/10:30pm 11.9 7.1 8.7 81 1.6 SSW 24 28 13 15 1016.2 1016.2 0.0
25/10:00pm 11.6 9.2 8.6 82 1.5 S 11 13 6 7 1015.8 1015.8 0.0
25/09:30pm 11.5 9.5 8.5 82 1.5 S 9 13 5 7 1015.6 1015.7 0.0
25/09:00pm 11.5 8.2 8.2 80 1.6 SSE 15 22 8 12 1015.4 1015.5 0.0
25/08:30pm 11.7 7.7 8.2 79 1.7 S 19 22 10 12 1015.6 1015.7 0.0
25/08:00pm 11.4 7.3 7.9 79 1.7 SSE 19 24 10 13 1015.3 1015.4 0.0
25/07:30pm 11.9 6.3 8.6 80 1.6 S 28 37 15 20 1015.3 1015.4 0.0
25/07:00pm 12.2 4.6 8.9 80 1.6 S 39 46 21 25 1015.0 1015.1 0.0
25/06:30pm 12.6 4.2 8.9 78 1.9 S 43 50 23 27 1015.0 1015.1 0.0
25/06:00pm 13.1 4.8 9.4 78 1.9 S 43 52 23 28 1015.2 1015.3 0.0
25/05:30pm 13.7 5.6 9.9 78 2.0 S 43 48 23 26 1015.1 1015.2 0.0
25/05:00pm 13.9 6.9 10.1 78 2.0 S 37 44 20 24 1014.9 1015.0 0.0
25/04:30pm 14.1 8.0 10.5 79 1.9 S 33 39 18 21 1014.8 1014.9 0.0
25/04:00pm 14.4 8.0 10.8 79 1.9 SSW 35 41 19 22 1015.3 1015.4 0.0
25/03:30pm 14.4 8.8 11.6 83 1.5 SSW 32 37 17 20 1015.6 1015.7 0.0
25/03:00pm 14.7 9.5 11.7 82 1.6 SSW 30 33 16 18 1016.0 1016.0 0.0
25/02:30pm 15.0 10.1 11.2 78 2.0 SSW 28 30 15 16 1016.6 1016.6 0.0
25/02:00pm 14.6 10.3 10.6 77 2.1 SSW 24 28 13 15 1016.7 1016.7 0.0
25/01:30pm 15.0 11.0 10.4 74 2.4 SSW 22 26 12 14 1016.7 1016.7 0.0
25/01:00pm 15.4 12.0 11.2 76 2.2 SSW 20 24 11 13 1016.8 1016.8 0.0
25/12:30pm 15.1 11.6 10.9 76 2.2 SSW 20 24 11 13 1017.1 1017.1 0.0
25/12:00pm 14.7 11.1 10.5 76 2.2 SSW 20 24 11 13 1017.4 1017.4 0.0
25/11:30am 13.9 9.9 10.3 79 1.9 SSW 22 24 12 13 1017.5 1017.5 0.0
25/11:00am 14.0 9.7 10.6 80 1.8 SSW 24 28 13 15 1017.8 1017.8 0.0
25/10:30am 13.9 9.6 10.7 81 1.7 SSW 24 30 13 16 1017.4 1017.4 0.0
25/10:00am 13.4 9.7 11.5 88 1.0 S 22 26 12 14 1017.2 1017.2 0.0
25/09:30am 12.7 9.0 11.6 93 0.6 S 22 26 12 14 1017.1 1017.1 0.0
25/09:00am 12.2 7.7 11.4 95 0.4 SSW 26 30 14 16 1016.8 1016.8 0.0
25/08:30am 12.2 8.6 11.7 97 0.3 SSW 22 26 12 14 1016.5 1016.5 0.0
25/08:00am 12.0 7.5 11.4 96 0.3 SSW 26 30 14 16 1016.3 1016.3 0.0
25/07:30am 12.3 9.0 11.5 95 0.4 SSW 20 26 11 14 1015.8 1015.8 0.0
25/07:00am 12.7 8.6 11.6 93 0.6 SSW 24 28 13 15 1015.3 1015.4 0.0
25/06:30am 12.7 9.1 11.8 94 0.5 SSW 22 28 12 15 1014.6 1014.7 0.0
25/06:00am 12.6 8.6 11.8 95 0.4 SW 24 28 13 15 1014.0 1014.1 0.0
25/05:30am 12.7 8.4 12.2 97 0.3 SSW 26 28 14 15 1013.8 1013.9 0.0
25/05:00am 12.6 8.4 12.3 98 0.2 SSW 26 30 14 16 1013.6 1013.7 0.0
25/04:30am 12.5 7.1 12.3 99 0.1 SSW 32 37 17 20 1013.2 1013.3 0.0
25/04:00am 12.8 7.6 12.8 100 0.0 SSW 32 35 17 19 1013.0 1013.1 0.0
25/03:30am 12.8 8.0 12.8 100 0.0 SW 30 32 16 17 1013.0 1013.1 0.0
25/03:00am 12.9 8.5 12.9 100 0.0 SW 28 33 15 18 1012.6 1012.7 0.0
25/02:30am 13.1 9.9 13.1 100 0.0 WSW 22 28 12 15 1012.5 1012.6 0.0
25/02:00am 13.1 10.3 13.1 100 0.0 WSW 20 24 11 13 1012.4 1012.5 0.0
25/01:30am 13.2 10.0 13.2 100 0.0 WSW 22 28 12 15 1012.4 1012.5 0.0
25/01:00am 13.2 10.0 13.2 100 0.0 WSW 22 26 12 14 1012.5 1012.6 0.0
25/12:30am 13.1 9.5 13.1 100 0.0 WSW 24 28 13 15 1012.3 1012.4 0.0
25/12:00am 13.2 8.9 13.2 100 0.0 WSW 28 35 15 19 1012.0 1012.1 0.0
 
Date/Time
EDT
Temp
°C
App
Temp
°C
Dew
Point
Rel
Hum
%
Delta-T
°C
Wind Press
QNH
hPa
Press
MSL
hPa
Rain
since 9 am
mm
Dir
 
Spd
km/h
Gust
km/h
Spd
kts
Gust
kts
24/11:30pm 13.5 10.4 13.5 100 0.0 WSW 22 30 12 16 1011.8 1011.9 0.0
24/11:00pm 13.7 10.7 13.7 100 0.0 W 22 32 12 17 1011.2 1011.3 0.0
24/10:30pm 13.8 10.0 13.6 99 0.1 WNW 26 33 14 18 1010.8 1010.9 0.0
24/10:00pm 13.7 7.7 13.4 98 0.2 WNW 37 44 20 24 1010.4 1010.4 0.0
24/09:30pm 14.4 10.7 13.8 96 0.3 NW 26 35 14 19 1010.4 1010.4 0.0
24/09:00pm 14.8 11.4 13.7 93 0.6 N 24 30 13 16 1009.6 1009.6 0.0
24/08:30pm 15.0 14.4 13.4 90 0.9 NNW 9 17 5 9 1009.8 1009.8 0.0
24/08:00pm 14.5 14.5 12.4 87 1.1 WSW 4 7 2 4 1009.7 1009.7 0.0
24/07:30pm 14.6 13.6 12.3 86 1.3 SW 9 13 5 7 1009.5 1009.5 0.0
24/07:00pm 15.0 12.8 12.0 82 1.6 SW 15 19 8 10 1009.1 1009.1 0.0
24/06:30pm 15.7 13.8 11.7 77 2.2 WSW 13 15 7 8 1008.3 1008.3 0.0
24/06:00pm 16.8 16.5 11.5 71 2.9 N 4 6 2 3 1007.7 1007.7 0.0
24/05:30pm 16.8 15.5 11.3 70 3.0 NE 9 13 5 7 1007.7 1007.7 0.0
24/05:00pm 16.7 16.6 13.4 81 1.9 ESE 6 13 3 7 1007.5 1007.5 0.0
24/04:30pm 14.4 11.2 11.9 85 1.3 S 20 22 11 12 1008.7 1008.7 0.0
24/04:00pm 14.5 10.5 11.8 84 1.5 SSW 24 28 13 15 1009.4 1009.4 0.0
24/03:30pm 14.8 11.1 11.4 80 1.8 S 22 26 12 14 1009.2 1009.2 0.0
24/03:00pm 15.6 12.2 11.4 76 2.3 SSW 20 24 11 13 1009.2 1009.2 0.0
24/02:30pm 15.5 12.2 11.5 77 2.2 SSW 20 24 11 13 1009.3 1009.3 0.0
24/02:00pm 16.9 13.9 12.4 75 2.5 S 20 26 11 14 1009.4 1009.4 0.0
24/01:30pm 18.2 16.1 13.7 75 2.6 SSW 17 20 9 11 1009.6 1009.6 0.0
24/01:00pm 16.8 15.8 12.3 75 2.5 S 9 13 5 7 1009.7 1009.7 0.0
24/12:30pm 16.9 15.5 12.2 74 2.6 S 11 17 6 9 1010.3 1010.3 0.0
24/12:00pm 16.2 14.2 11.4 73 2.6 S 13 17 7 9 1011.1 1011.2 0.0
24/11:30am 16.6 13.8 11.5 72 2.8 S 17 19 9 10 1011.9 1012.0 0.0
24/11:00am 18.2 15.9 11.7 66 3.6 SE 15 22 8 12 1012.5 1012.6 0.0
24/10:30am 16.5 14.7 12.1 75 2.4 SSE 13 17 7 9 1013.2 1013.3 0.0
24/10:00am 15.1 13.8 12.4 84 1.5 SE 11 17 6 9 1013.8 1013.9 0.0
24/09:30am 14.7 13.1 12.9 89 1.0 SSE 13 17 7 9 1013.7 1013.8 0.0
24/09:00am 14.7 13.1 13.9 95 0.4 SE 15 20 8 11 1014.1 1014.2 0.0
24/08:30am 13.3 11.0 13.0 98 0.2 ESE 17 24 9 13 1014.5 1014.6 0.0
24/08:00am 12.7 11.0 12.5 99 0.1 ESE 13 15 7 8 1015.1 1015.2 0.0
24/07:30am 12.1 10.2 11.9 99 0.1 ESE 13 17 7 9 1015.3 1015.4 0.0
24/07:00am 10.6 8.7 10.4 99 0.1 E 11 13 6 7 1015.6 1015.7 0.0
24/06:30am 10.1 9.0 9.8 98 0.2 NE 6 7 3 4 1016.2 1016.2 0.0
24/06:00am 11.0 9.9 10.8 99 0.1 N 7 9 4 5 1016.5 1016.5 0.0
24/05:30am 10.8 9.7 10.5 98 0.2 NE 7 9 4 5 1016.5 1016.5 0.0
24/05:00am 11.1 8.5 10.6 97 0.3 E 15 19 8 10 1016.2 1016.2 0.0
24/04:30am 10.6 7.4 9.8 95 0.4 E 17 20 9 11 1016.3 1016.3 0.0
24/04:00am 10.0 6.5 8.9 93 0.5 E 17 19 9 10 1017.0 1017.0 0.0
24/03:30am 10.0 6.8 8.6 91 0.7 ENE 15 17 8 9 1017.7 1017.7 0.0
24/03:00am 11.8 9.7 9.9 88 1.0 NNE 11 13 6 7 1018.5 1018.5 0.0
24/02:30am 12.0 9.4 10.7 92 0.7 N 15 19 8 10 1019.2 1019.2 0.0
24/02:00am 12.1 10.4 11.3 95 0.4 N 11 15 6 8 1019.5 1019.5 0.0
24/01:30am 12.3 11.5 11.7 96 0.3 NNE 7 9 4 5 1019.8 1019.8 0.0
24/01:00am 12.3 10.7 11.7 96 0.3 NNE 11 15 6 8 1020.2 1020.2 0.0
24/12:30am 12.7 12.0 12.1 96 0.3 NNE 7 9 4 5 1020.5 1020.5 0.0
24/12:00am 12.7 12.1 11.8 94 0.5 NNE 6 7 3 4 1020.9 1020.9 0.0
 
Date/Time
EDT
Temp
°C
App
Temp
°C
Dew
Point
Rel
Hum
%
Delta-T
°C
Wind Press
QNH
hPa
Press
MSL
hPa
Rain
since 9 am
mm
Dir
 
Spd
km/h
Gust
km/h
Spd
kts
Gust
kts
23/11:30pm 12.5 11.8 11.4 93 0.6 N 6 7 3 4 1021.1 1021.1 0.0
23/11:00pm 12.1 11.2 10.7 91 0.7 NNE 6 7 3 4 1021.3 1021.3 0.0
23/10:30pm 12.7 12.2 10.9 89 0.9 NW 4 6 2 3 1021.5 1021.5 0.0
23/10:00pm 12.9 12.9 11.0 88 1.0 NW 2 4 1 2 1021.4 1021.4 0.0
23/09:30pm 13.1 12.6 10.8 86 1.2 NW 4 6 2 3 1021.5 1021.5 0.0
23/09:00pm 13.2 13.0 10.6 84 1.4 WSW 2 6 1 3 1021.4 1021.4 0.0
23/08:30pm 13.2 12.5 10.0 81 1.6 NNW 4 4 2 2 1021.3 1021.3 0.0
23/08:00pm 13.6 13.3 10.0 79 1.9 S 2 4 1 2 1021.2 1021.2 0.0
23/07:30pm 14.3 14.1 10.5 78 2.0 S 2 4 1 2 1021.0 1021.0 0.0
23/07:00pm 14.8 13.7 10.8 77 2.1 S 7 9 4 5 1020.9 1020.9 0.0
23/06:30pm 15.0 12.9 11.0 77 2.1 S 13 17 7 9 1021.0 1021.0 0.0
23/06:00pm 15.1 12.2 11.1 77 2.1 S 17 24 9 13 1021.1 1021.1 0.0
23/05:30pm 14.2 9.7 10.2 77 2.1 S 24 30 13 16 1020.9 1020.9 0.0
23/05:00pm 14.4 9.6 10.2 76 2.2 S 26 32 14 17 1020.9 1020.9 0.0
23/04:30pm 15.3 10.7 10.9 75 2.3 S 26 32 14 17 1020.7 1020.7 0.0
23/04:00pm 15.7 11.2 11.3 75 2.4 S 26 30 14 16 1020.8 1020.8 0.0
23/03:30pm 15.8 11.6 11.2 74 2.5 S 24 30 13 16 1020.7 1020.7 0.0
23/03:00pm 15.6 10.6 10.8 73 2.5 S 28 33 15 18 1020.6 1020.6 0.0
23/02:30pm 15.7 11.0 10.7 72 2.7 S 26 32 14 17 1020.7 1020.7 0.0
23/02:00pm 15.6 10.9 10.8 73 2.5 S 26 33 14 18 1020.8 1020.8 0.0
23/01:30pm 15.4 10.3 10.6 73 2.5 S 28 35 15 19 1020.9 1020.9 0.0
23/01:00pm 15.0 9.0 10.2 73 2.5 S 32 41 17 22 1021.0 1021.0 0.0
23/12:30pm 14.7 8.4 9.7 72 2.6 S 33 41 18 22 1021.0 1021.0 0.0
23/12:00pm 14.8 9.5 9.8 72 2.6 S 28 33 15 18 1021.4 1021.4 0.0
23/11:30am 14.9 9.6 9.7 71 2.7 S 28 32 15 17 1021.7 1021.7 0.0
23/11:00am 17.6 14.0 8.5 55 4.7 SSE 17 26 9 14 1022.1 1022.1 0.0
23/10:30am 16.6 12.2 9.1 61 3.9 SE 22 32 12 17 1022.2 1022.2 0.0
23/10:00am 15.4 11.0 9.1 66 3.2 SE 22 33 12 18 1022.3 1022.3 0.0
23/09:30am 14.2 9.3 8.4 68 2.9 SE 24 33 13 18 1022.2 1022.2 0.0
23/09:00am 13.6 9.0 8.2 70 2.7 SSE 22 32 12 17 1022.2 1022.2 0.0
23/08:30am 12.2 6.8 7.9 75 2.1 SSE 26 35 14 19 1022.4 1022.4 0.0

Other Formats:

Comma delimited format used in spreadsheet applications
http://www.bom.gov.au/fwo/IDT60801/IDT60801.94974.axf

JavaScript Object Notation format (JSON) in row-major order
http://www.bom.gov.au/fwo/IDT60801/IDT60801.94974.json